sensor_id;sensor_type;location;lat;lon;timestamp;pressure;altitude;pressure_sealevel;temperature;humidity
20156;BME280;10238;49.556;10.956;2023-12-20T00:01:57;98306.84;;;5.20;100.00
20156;BME280;10238;49.556;10.956;2023-12-20T00:04:45;98306.09;;;5.18;100.00
20156;BME280;10238;49.556;10.956;2023-12-20T00:07:32;98303.72;;;5.15;100.00
20156;BME280;10238;49.556;10.956;2023-12-20T00:10:20;98306.34;;;5.15;100.00
20156;BME280;10238;49.556;10.956;2023-12-20T00:13:08;98299.41;;;5.14;100.00
20156;BME280;10238;49.556;10.956;2023-12-20T00:15:55;98302.06;;;5.14;100.00
20156;BME280;10238;49.556;10.956;2023-12-20T00:18:44;98289.69;;;5.15;100.00
20156;BME280;10238;49.556;10.956;2023-12-20T00:21:31;98288.16;;;5.12;100.00
20156;BME280;10238;49.556;10.956;2023-12-20T00:24:19;98281.22;;;5.11;100.00
20156;BME280;10238;49.556;10.956;2023-12-20T00:27:06;98281.22;;;5.11;100.00
20156;BME280;10238;49.556;10.956;2023-12-20T00:29:54;98274.97;;;5.12;100.00
20156;BME280;10238;49.556;10.956;2023-12-20T00:32:41;98276.78;;;5.12;100.00
20156;BME280;10238;49.556;10.956;2023-12-20T00:35:34;98275.81;;;5.13;100.00
20156;BME280;10238;49.556;10.956;2023-12-20T00:38:21;98275.69;;;5.14;100.00
20156;BME280;10238;49.556;10.956;2023-12-20T00:41:09;98274.84;;;5.14;100.00
20156;BME280;10238;49.556;10.956;2023-12-20T00:43:56;98268.78;;;5.13;100.00
20156;BME280;10238;49.556;10.956;2023-12-20T00:46:44;98263.22;;;5.16;100.00
20156;BME280;10238;49.556;10.956;2023-12-20T00:49:31;98264.19;;;5.15;100.00
20156;BME280;10238;49.556;10.956;2023-12-20T00:52:20;98265.16;;;5.14;100.00
20156;BME280;10238;49.556;10.956;2023-12-20T00:55:09;98277.38;;;5.15;100.00
20156;BME280;10238;49.556;10.956;2023-12-20T00:57:56;98275.69;;;5.14;100.00
20156;BME280;10238;49.556;10.956;2023-12-20T01:00:45;98274.03;;;5.13;100.00
20156;BME280;10238;49.556;10.956;2023-12-20T01:03:33;98260.88;;;5.13;100.00
20156;BME280;10238;49.556;10.956;2023-12-20T01:06:20;98252.13;;;5.13;100.00
20156;BME280;10238;49.556;10.956;2023-12-20T01:09:09;98254.63;;;5.14;100.00
20156;BME280;10238;49.556;10.956;2023-12-20T01:11:57;98246.47;;;5.17;100.00
20156;BME280;10238;49.556;10.956;2023-12-20T01:14:44;98240.47;;;5.15;100.00
20156;BME280;10238;49.556;10.956;2023-12-20T01:17:32;98242.44;;;5.13;100.00
20156;BME280;10238;49.556;10.956;2023-12-20T01:20:19;98237.97;;;5.14;100.00
20156;BME280;10238;49.556;10.956;2023-12-20T01:23:07;98236.31;;;5.13;100.00
20156;BME280;10238;49.556;10.956;2023-12-20T01:25:56;98234.66;;;5.12;100.00
20156;BME280;10238;49.556;10.956;2023-12-20T01:28:45;98235.72;;;5.09;100.00
20156;BME280;10238;49.556;10.956;2023-12-20T01:31:33;98238.47;;;5.08;100.00
20156;BME280;10238;49.556;10.956;2023-12-20T01:34:20;98235.00;;;5.07;100.00
20156;BME280;10238;49.556;10.956;2023-12-20T01:37:08;98234.03;;;5.08;100.00
20156;BME280;10238;49.556;10.956;2023-12-20T01:39:55;98227.22;;;5.06;100.00
20156;BME280;10238;49.556;10.956;2023-12-20T01:42:44;98223.03;;;5.03;100.00
20156;BME280;10238;49.556;10.956;2023-12-20T01:45:32;98227.59;;;5.01;100.00
20156;BME280;10238;49.556;10.956;2023-12-20T01:48:20;98220.63;;;5.00;100.00
20156;BME280;10238;49.556;10.956;2023-12-20T01:51:08;98220.75;;;4.99;100.00
20156;BME280;10238;49.556;10.956;2023-12-20T01:53:59;98227.72;;;5.00;100.00
20156;BME280;10238;49.556;10.956;2023-12-20T01:56:48;98226.88;;;4.99;100.00
20156;BME280;10238;49.556;10.956;2023-12-20T01:59:40;98221.84;;;4.96;100.00
20156;BME280;10238;49.556;10.956;2023-12-20T02:02:29;98225.44;;;4.95;100.00
20156;BME280;10238;49.556;10.956;2023-12-20T02:05:17;98233.59;;;4.92;100.00
20156;BME280;10238;49.556;10.956;2023-12-20T02:08:06;98232.19;;;4.88;100.00
20156;BME280;10238;49.556;10.956;2023-12-20T02:10:54;98223.31;;;4.89;100.00
20156;BME280;10238;49.556;10.956;2023-12-20T02:13:42;98224.28;;;4.88;100.00
20156;BME280;10238;49.556;10.956;2023-12-20T02:16:31;98225.22;;;4.87;100.00
20156;BME280;10238;49.556;10.956;2023-12-20T02:19:20;98219.25;;;4.85;100.00
20156;BME280;10238;49.556;10.956;2023-12-20T02:22:10;98223.06;;;4.81;100.00
20156;BME280;10238;49.556;10.956;2023-12-20T02:24:58;98224.03;;;4.80;100.00
20156;BME280;10238;49.556;10.956;2023-12-20T02:27:46;98212.09;;;4.76;100.00
20156;BME280;10238;49.556;10.956;2023-12-20T02:30:34;98217.59;;;4.73;100.00
20156;BME280;10238;49.556;10.956;2023-12-20T02:33:22;98215.19;;;4.70;100.00
20156;BME280;10238;49.556;10.956;2023-12-20T02:36:10;98198.69;;;4.68;100.00
20156;BME280;10238;49.556;10.956;2023-12-20T02:38:59;98203.50;;;4.63;100.00
20156;BME280;10238;49.556;10.956;2023-12-20T02:41:46;98218.56;;;4.61;100.00
20156;BME280;10238;49.556;10.956;2023-12-20T02:44:34;98217.88;;;4.59;100.00
20156;BME280;10238;49.556;10.956;2023-12-20T02:47:22;98218.78;;;4.58;100.00
20156;BME280;10238;49.556;10.956;2023-12-20T02:50:10;98220.75;;;4.56;100.00
20156;BME280;10238;49.556;10.956;2023-12-20T02:52:57;98221.78;;;4.53;100.00
20156;BME280;10238;49.556;10.956;2023-12-20T02:55:46;98225.38;;;4.53;100.00
20156;BME280;10238;49.556;10.956;2023-12-20T02:58:34;98218.69;;;4.48;100.00
20156;BME280;10238;49.556;10.956;2023-12-20T03:01:21;98217.97;;;4.46;100.00
20156;BME280;10238;49.556;10.956;2023-12-20T03:04:09;98215.59;;;4.43;100.00
20156;BME280;10238;49.556;10.956;2023-12-20T03:06:56;98215.00;;;4.40;100.00
20156;BME280;10238;49.556;10.956;2023-12-20T03:09:44;98211.66;;;4.38;100.00
20156;BME280;10238;49.556;10.956;2023-12-20T03:12:53;98207.34;;;4.37;100.00
20156;BME280;10238;49.556;10.956;2023-12-20T03:15:40;98213.53;;;4.36;100.00
20156;BME280;10238;49.556;10.956;2023-12-20T03:18:28;98204.00;;;4.35;100.00
20156;BME280;10238;49.556;10.956;2023-12-20T03:21:15;98213.78;;;4.33;100.00
20156;BME280;10238;49.556;10.956;2023-12-20T03:24:03;98211.38;;;4.30;100.00
20156;BME280;10238;49.556;10.956;2023-12-20T03:26:51;98226.47;;;4.28;100.00
20156;BME280;10238;49.556;10.956;2023-12-20T03:29:39;98217.72;;;4.27;100.00
20156;BME280;10238;49.556;10.956;2023-12-20T03:32:27;98214.25;;;4.27;100.00
20156;BME280;10238;49.556;10.956;2023-12-20T03:35:15;98223.97;;;4.26;100.00
20156;BME280;10238;49.556;10.956;2023-12-20T03:38:03;98224.06;;;4.25;100.00
20156;BME280;10238;49.556;10.956;2023-12-20T03:40:50;98227.78;;;4.22;100.00
20156;BME280;10238;49.556;10.956;2023-12-20T03:43:38;98226.94;;;4.22;100.00
20156;BME280;10238;49.556;10.956;2023-12-20T03:46:27;98228.84;;;4.20;100.00
20156;BME280;10238;49.556;10.956;2023-12-20T03:49:14;98229.69;;;4.20;100.00
20156;BME280;10238;49.556;10.956;2023-12-20T03:52:02;98218.56;;;4.17;100.00
20156;BME280;10238;49.556;10.956;2023-12-20T03:54:50;98233.53;;;4.16;100.00
20156;BME280;10238;49.556;10.956;2023-12-20T03:57:37;98229.06;;;4.17;100.00
20156;BME280;10238;49.556;10.956;2023-12-20T04:00:25;98227.41;;;4.16;100.00
20156;BME280;10238;49.556;10.956;2023-12-20T04:03:13;98224.91;;;4.14;100.00
20156;BME280;10238;49.556;10.956;2023-12-20T04:06:01;98229.31;;;4.14;100.00
20156;BME280;10238;49.556;10.956;2023-12-20T04:08:48;98226.00;;;4.12;100.00
20156;BME280;10238;49.556;10.956;2023-12-20T04:11:37;98225.13;;;4.11;100.00
20156;BME280;10238;49.556;10.956;2023-12-20T04:14:24;98227.88;;;4.10;100.00
20156;BME280;10238;49.556;10.956;2023-12-20T04:17:12;98234.09;;;4.09;100.00
20156;BME280;10238;49.556;10.956;2023-12-20T04:20:01;98238.63;;;4.07;100.00
20156;BME280;10238;49.556;10.956;2023-12-20T04:22:49;98231.59;;;4.07;100.00
20156;BME280;10238;49.556;10.956;2023-12-20T04:25:36;98222.03;;;4.06;100.00
20156;BME280;10238;49.556;10.956;2023-12-20T04:28:24;98227.31;;;4.06;100.00
20156;BME280;10238;49.556;10.956;2023-12-20T04:31:11;98214.25;;;4.05;100.00
20156;BME280;10238;49.556;10.956;2023-12-20T04:33:59;98223.09;;;4.04;100.00
20156;BME280;10238;49.556;10.956;2023-12-20T04:36:48;98217.13;;;4.02;100.00
20156;BME280;10238;49.556;10.956;2023-12-20T04:39:36;98227.53;;;4.03;100.00
20156;BME280;10238;49.556;10.956;2023-12-20T04:42:23;98232.78;;;4.03;100.00
20156;BME280;10238;49.556;10.956;2023-12-20T04:45:11;98221.53;;;4.01;100.00
20156;BME280;10238;49.556;10.956;2023-12-20T04:48:01;98223.31;;;4.01;100.00
20156;BME280;10238;49.556;10.956;2023-12-20T04:50:49;98230.28;;;4.02;100.00
20156;BME280;10238;49.556;10.956;2023-12-20T04:53:38;98232.19;;;4.00;100.00
20156;BME280;10238;49.556;10.956;2023-12-20T04:56:25;98233.84;;;4.01;100.00
20156;BME280;10238;49.556;10.956;2023-12-20T04:59:13;98231.22;;;4.01;100.00
20156;BME280;10238;49.556;10.956;2023-12-20T05:02:01;98237.44;;;4.00;100.00
20156;BME280;10238;49.556;10.956;2023-12-20T05:04:48;98228.69;;;3.99;100.00
20156;BME280;10238;49.556;10.956;2023-12-20T05:07:40;98241.97;;;3.98;100.00
20156;BME280;10238;49.556;10.956;2023-12-20T05:10:29;98249.16;;;3.96;100.00
20156;BME280;10238;49.556;10.956;2023-12-20T05:13:17;98251.78;;;3.96;100.00
20156;BME280;10238;49.556;10.956;2023-12-20T05:16:06;98249.03;;;3.97;100.00
20156;BME280;10238;49.556;10.956;2023-12-20T05:18:53;98247.34;;;3.96;100.00
20156;BME280;10238;49.556;10.956;2023-12-20T05:21:42;98244.81;;;3.95;100.00
20156;BME280;10238;49.556;10.956;2023-12-20T05:24:29;98258.94;;;3.94;100.00
20156;BME280;10238;49.556;10.956;2023-12-20T05:27:18;98257.16;;;3.94;100.00
20156;BME280;10238;49.556;10.956;2023-12-20T05:30:07;98256.31;;;3.94;100.00
20156;BME280;10238;49.556;10.956;2023-12-20T05:32:55;98268.59;;;3.93;100.00
20156;BME280;10238;49.556;10.956;2023-12-20T05:35:42;98270.41;;;3.93;100.00
20156;BME280;10238;49.556;10.956;2023-12-20T05:38:30;98256.41;;;3.92;100.00
20156;BME280;10238;49.556;10.956;2023-12-20T05:41:17;98258.19;;;3.92;100.00
20156;BME280;10238;49.556;10.956;2023-12-20T05:44:06;98247.69;;;3.92;100.00
20156;BME280;10238;49.556;10.956;2023-12-20T05:46:53;98250.31;;;3.92;100.00
20156;BME280;10238;49.556;10.956;2023-12-20T05:49:41;98276.59;;;3.92;100.00
20156;BME280;10238;49.556;10.956;2023-12-20T05:52:29;98275.69;;;3.93;100.00
20156;BME280;10238;49.556;10.956;2023-12-20T05:55:18;98276.50;;;3.93;100.00
20156;BME280;10238;49.556;10.956;2023-12-20T05:58:06;98290.50;;;3.94;100.00
20156;BME280;10238;49.556;10.956;2023-12-20T06:00:55;98294.91;;;3.93;100.00
20156;BME280;10238;49.556;10.956;2023-12-20T06:03:43;98287.84;;;3.94;100.00
20156;BME280;10238;49.556;10.956;2023-12-20T06:06:32;98294.78;;;3.95;100.00
20156;BME280;10238;49.556;10.956;2023-12-20T06:09:19;98288.59;;;3.96;100.00
20156;BME280;10238;49.556;10.956;2023-12-20T06:12:07;98294.78;;;3.95;100.00
20156;BME280;10238;49.556;10.956;2023-12-20T06:14:55;98304.38;;;3.96;100.00
20156;BME280;10238;49.556;10.956;2023-12-20T06:17:45;98316.56;;;3.97;100.00
20156;BME280;10238;49.556;10.956;2023-12-20T06:20:35;98312.97;;;3.98;100.00
20156;BME280;10238;49.556;10.956;2023-12-20T06:23:23;98320.72;;;3.99;100.00
20156;BME280;10238;49.556;10.956;2023-12-20T06:26:10;98328.75;;;3.98;100.00
20156;BME280;10238;49.556;10.956;2023-12-20T06:28:58;98332.97;;;4.00;100.00
20156;BME280;10238;49.556;10.956;2023-12-20T06:31:45;98327.59;;;4.02;100.00
20156;BME280;10238;49.556;10.956;2023-12-20T06:34:34;98335.25;;;4.05;100.00
20156;BME280;10238;49.556;10.956;2023-12-20T06:37:22;98338.81;;;4.04;100.00
20156;BME280;10238;49.556;10.956;2023-12-20T06:40:11;98340.50;;;4.05;100.00
20156;BME280;10238;49.556;10.956;2023-12-20T06:43:04;98321.13;;;4.06;100.00
20156;BME280;10238;49.556;10.956;2023-12-20T06:46:06;98332.63;;;4.05;100.00
20156;BME280;10238;49.556;10.956;2023-12-20T06:48:53;98340.38;;;4.06;100.00
20156;BME280;10238;49.556;10.956;2023-12-20T06:51:43;98345.66;;;4.06;100.00
20156;BME280;10238;49.556;10.956;2023-12-20T06:54:30;98339.53;;;4.06;100.00
20156;BME280;10238;49.556;10.956;2023-12-20T06:57:20;98348.13;;;4.08;100.00
20156;BME280;10238;49.556;10.956;2023-12-20T07:00:10;98351.72;;;4.07;100.00
20156;BME280;10238;49.556;10.956;2023-12-20T07:02:58;98372.66;;;4.08;100.00
20156;BME280;10238;49.556;10.956;2023-12-20T07:05:45;98376.13;;;4.09;100.00
20156;BME280;10238;49.556;10.956;2023-12-20T07:08:34;98373.38;;;4.10;100.00
20156;BME280;10238;49.556;10.956;2023-12-20T07:11:22;98385.69;;;4.10;100.00
20156;BME280;10238;49.556;10.956;2023-12-20T07:14:10;98389.06;;;4.12;100.00
20156;BME280;10238;49.556;10.956;2023-12-20T07:16:58;98399.34;;;4.15;100.00
20156;BME280;10238;49.556;10.956;2023-12-20T07:19:45;98398.50;;;4.14;100.00
20156;BME280;10238;49.556;10.956;2023-12-20T07:22:33;98404.59;;;4.15;100.00
20156;BME280;10238;49.556;10.956;2023-12-20T07:25:23;98414.16;;;4.16;100.00
20156;BME280;10238;49.556;10.956;2023-12-20T07:28:10;98407.94;;;4.17;100.00
20156;BME280;10238;49.556;10.956;2023-12-20T07:30:58;98405.19;;;4.18;100.00
20156;BME280;10238;49.556;10.956;2023-12-20T07:33:46;98404.97;;;4.21;100.00
20156;BME280;10238;49.556;10.956;2023-12-20T07:36:34;98407.50;;;4.23;100.00
20156;BME280;10238;49.556;10.956;2023-12-20T07:39:21;98404.75;;;4.24;100.00
20156;BME280;10238;49.556;10.956;2023-12-20T07:42:11;98411.69;;;4.25;100.00
20156;BME280;10238;49.556;10.956;2023-12-20T07:44:58;98408.00;;;4.28;100.00
20156;BME280;10238;49.556;10.956;2023-12-20T07:47:46;98419.22;;;4.30;100.00
20156;BME280;10238;49.556;10.956;2023-12-20T07:50:35;98413.75;;;4.33;100.00
20156;BME280;10238;49.556;10.956;2023-12-20T07:53:23;98415.44;;;4.34;100.00
20156;BME280;10238;49.556;10.956;2023-12-20T07:56:15;98428.47;;;4.35;100.00
20156;BME280;10238;49.556;10.956;2023-12-20T07:59:04;98423.09;;;4.37;100.00
20156;BME280;10238;49.556;10.956;2023-12-20T08:01:58;98422.16;;;4.38;100.00
20156;BME280;10238;49.556;10.956;2023-12-20T08:04:46;98429.06;;;4.39;100.00
20156;BME280;10238;49.556;10.956;2023-12-20T08:07:34;98428.03;;;4.41;100.00
20156;BME280;10238;49.556;10.956;2023-12-20T08:10:21;98432.22;;;4.44;100.00
20156;BME280;10238;49.556;10.956;2023-12-20T08:13:09;98422.50;;;4.44;100.00
20156;BME280;10238;49.556;10.956;2023-12-20T08:15:58;98431.25;;;4.45;100.00
20156;BME280;10238;49.556;10.956;2023-12-20T08:18:47;98431.25;;;4.45;100.00
20156;BME280;10238;49.556;10.956;2023-12-20T08:21:35;98432.81;;;4.47;100.00
20156;BME280;10238;49.556;10.956;2023-12-20T08:24:24;98440.59;;;4.49;100.00
20156;BME280;10238;49.556;10.956;2023-12-20T08:27:12;98433.66;;;4.48;100.00
20156;BME280;10238;49.556;10.956;2023-12-20T08:29:59;98442.41;;;4.48;100.00
20156;BME280;10238;49.556;10.956;2023-12-20T08:32:48;98433.31;;;4.53;100.00
20156;BME280;10238;49.556;10.956;2023-12-20T08:35:36;98432.00;;;4.58;100.00
20156;BME280;10238;49.556;10.956;2023-12-20T08:38:24;98434.19;;;4.64;100.00
20156;BME280;10238;49.556;10.956;2023-12-20T08:41:12;98425.09;;;4.68;100.00
20156;BME280;10238;49.556;10.956;2023-12-20T08:43:59;98419.69;;;4.70;100.00
20156;BME280;10238;49.556;10.956;2023-12-20T08:46:47;98423.06;;;4.72;100.00
20156;BME280;10238;49.556;10.956;2023-12-20T08:49:36;98426.56;;;4.72;100.00
20156;BME280;10238;49.556;10.956;2023-12-20T08:52:26;98431.81;;;4.72;100.00
20156;BME280;10238;49.556;10.956;2023-12-20T08:55:13;98419.59;;;4.71;100.00
20156;BME280;10238;49.556;10.956;2023-12-20T08:58:03;98419.47;;;4.73;100.00
20156;BME280;10238;49.556;10.956;2023-12-20T09:00:53;98414.31;;;4.71;100.00
20156;BME280;10238;49.556;10.956;2023-12-20T09:03:40;98425.69;;;4.72;100.00
20156;BME280;10238;49.556;10.956;2023-12-20T09:06:30;98423.19;;;4.70;100.00
20156;BME280;10238;49.556;10.956;2023-12-20T09:09:17;98423.19;;;4.70;100.00
20156;BME280;10238;49.556;10.956;2023-12-20T09:12:06;98423.19;;;4.70;100.00
20156;BME280;10238;49.556;10.956;2023-12-20T09:14:53;98429.41;;;4.69;100.00
20156;BME280;10238;49.556;10.956;2023-12-20T09:17:41;98427.59;;;4.70;100.00
20156;BME280;10238;49.556;10.956;2023-12-20T09:20:30;98416.25;;;4.69;100.00
20156;BME280;10238;49.556;10.956;2023-12-20T09:23:20;98417.91;;;4.70;100.00
20156;BME280;10238;49.556;10.956;2023-12-20T09:26:08;98424.03;;;4.71;100.00
20156;BME280;10238;49.556;10.956;2023-12-20T09:28:55;98438.75;;;4.73;100.00
20156;BME280;10238;49.556;10.956;2023-12-20T09:31:43;98443.78;;;4.76;100.00
20156;BME280;10238;49.556;10.956;2023-12-20T09:34:32;98437.56;;;4.77;100.00
20156;BME280;10238;49.556;10.956;2023-12-20T09:37:20;98443.31;;;4.82;100.00
20156;BME280;10238;49.556;10.956;2023-12-20T09:40:12;98449.91;;;4.88;100.00
20156;BME280;10238;49.556;10.956;2023-12-20T09:43:04;98448.59;;;4.93;100.00
20156;BME280;10238;49.556;10.956;2023-12-20T09:46:00;98446.34;;;5.00;100.00
20156;BME280;10238;49.556;10.956;2023-12-20T09:48:50;98443.94;;;5.08;100.00
20156;BME280;10238;49.556;10.956;2023-12-20T09:51:39;98447.91;;;5.13;100.00
20156;BME280;10238;49.556;10.956;2023-12-20T09:54:29;98450.16;;;5.18;100.00
20156;BME280;10238;49.556;10.956;2023-12-20T09:57:18;98450.66;;;5.23;100.00
20156;BME280;10238;49.556;10.956;2023-12-20T10:00:07;98452.59;;;5.32;100.00
20156;BME280;10238;49.556;10.956;2023-12-20T10:02:58;98452.09;;;5.38;100.00
20156;BME280;10238;49.556;10.956;2023-12-20T10:05:47;98453.66;;;5.40;100.00
20156;BME280;10238;49.556;10.956;2023-12-20T10:08:35;98456.06;;;5.43;100.00
20156;BME280;10238;49.556;10.956;2023-12-20T10:11:23;98452.22;;;5.47;100.00
20156;BME280;10238;49.556;10.956;2023-12-20T10:14:13;98447.66;;;5.49;100.00
20156;BME280;10238;49.556;10.956;2023-12-20T10:17:03;98450.31;;;5.49;100.00
20156;BME280;10238;49.556;10.956;2023-12-20T10:19:51;98427.28;;;5.51;100.00
20156;BME280;10238;49.556;10.956;2023-12-20T10:22:39;98429.66;;;5.54;100.00
20156;BME280;10238;49.556;10.956;2023-12-20T10:25:27;98421.88;;;5.53;100.00
20156;BME280;10238;49.556;10.956;2023-12-20T10:28:16;98426.34;;;5.52;100.00
20156;BME280;10238;49.556;10.956;2023-12-20T10:31:07;98422.97;;;5.50;100.00
20156;BME280;10238;49.556;10.956;2023-12-20T10:33:57;98424.06;;;5.48;100.00
20156;BME280;10238;49.556;10.956;2023-12-20T10:36:45;98411.25;;;5.43;100.00
20156;BME280;10238;49.556;10.956;2023-12-20T10:39:33;98410.28;;;5.44;100.00
20156;BME280;10238;49.556;10.956;2023-12-20T10:42:22;98418.91;;;5.46;100.00
20156;BME280;10238;49.556;10.956;2023-12-20T10:45:10;98415.66;;;5.43;100.00
20156;BME280;10238;49.556;10.956;2023-12-20T10:47:59;98411.25;;;5.43;100.00
20156;BME280;10238;49.556;10.956;2023-12-20T10:50:49;98401.66;;;5.42;100.00
20156;BME280;10238;49.556;10.956;2023-12-20T10:53:40;98390.88;;;5.45;100.00
20156;BME280;10238;49.556;10.956;2023-12-20T10:56:32;98390.66;;;5.48;100.00
20156;BME280;10238;49.556;10.956;2023-12-20T10:59:21;98383.44;;;5.50;100.00
20156;BME280;10238;49.556;10.956;2023-12-20T11:02:10;98381.75;;;5.49;100.00
20156;BME280;10238;49.556;10.956;2023-12-20T11:05:07;98383.44;;;5.50;100.00
20156;BME280;10238;49.556;10.956;2023-12-20T11:08:06;98364.84;;;5.52;100.00
20156;BME280;10238;49.556;10.956;2023-12-20T11:11:03;98360.19;;;5.55;100.00
20156;BME280;10238;49.556;10.956;2023-12-20T11:13:58;98361.84;;;5.56;100.00
20156;BME280;10238;49.556;10.956;2023-12-20T11:16:48;98359.94;;;5.58;100.00
20156;BME280;10238;49.556;10.956;2023-12-20T11:20:07;98374.41;;;5.64;100.00
20156;BME280;10238;49.556;10.956;2023-12-20T11:22:58;98374.28;;;5.65;100.00
20156;BME280;10238;49.556;10.956;2023-12-20T11:25:47;98366.38;;;5.65;100.00
20156;BME280;10238;49.556;10.956;2023-12-20T11:28:35;98367.25;;;5.66;100.00
20156;BME280;10238;49.556;10.956;2023-12-20T11:31:26;98367.09;;;5.67;100.00
20156;BME280;10238;49.556;10.956;2023-12-20T11:34:14;98350.31;;;5.68;100.00
20156;BME280;10238;49.556;10.956;2023-12-20T11:37:04;98358.94;;;5.70;100.00
20156;BME280;10238;49.556;10.956;2023-12-20T11:39:55;98366.16;;;5.68;100.00
20156;BME280;10238;49.556;10.956;2023-12-20T11:42:45;98359.91;;;5.69;100.00
20156;BME280;10238;49.556;10.956;2023-12-20T11:45:34;98368.06;;;5.66;100.00
20156;BME280;10238;49.556;10.956;2023-12-20T11:48:23;98353.66;;;5.70;100.00
20156;BME280;10238;49.556;10.956;2023-12-20T11:51:12;98349.09;;;5.72;100.00
20156;BME280;10238;49.556;10.956;2023-12-20T11:54:01;98349.22;;;5.71;100.00
20156;BME280;10238;49.556;10.956;2023-12-20T11:56:49;98339.16;;;5.76;100.00
20156;BME280;10238;49.556;10.956;2023-12-20T11:59:36;98345.84;;;5.80;100.00
20156;BME280;10238;49.556;10.956;2023-12-20T12:02:24;98338.78;;;5.80;100.00
20156;BME280;10238;49.556;10.956;2023-12-20T12:05:11;98345.50;;;5.84;100.00
20156;BME280;10238;49.556;10.956;2023-12-20T12:08:00;98339.13;;;5.87;100.00
20156;BME280;10238;49.556;10.956;2023-12-20T12:10:49;98337.22;;;5.89;100.00
20156;BME280;10238;49.556;10.956;2023-12-20T12:13:37;98346.41;;;5.94;100.00
20156;BME280;10238;49.556;10.956;2023-12-20T12:16:25;98339.22;;;5.96;100.00
20156;BME280;10238;49.556;10.956;2023-12-20T12:19:21;98333.09;;;5.96;100.00
20156;BME280;10238;49.556;10.956;2023-12-20T12:22:13;98340.78;;;5.99;100.00
20156;BME280;10238;49.556;10.956;2023-12-20T12:25:10;98338.13;;;5.99;100.00
20156;BME280;10238;49.556;10.956;2023-12-20T12:28:00;98326.72;;;5.98;100.00
20156;BME280;10238;49.556;10.956;2023-12-20T12:30:57;98330.09;;;6.00;100.00
20156;BME280;10238;49.556;10.956;2023-12-20T12:33:46;98326.34;;;6.03;100.00
20156;BME280;10238;49.556;10.956;2023-12-20T12:36:34;98325.13;;;6.07;100.00
20156;BME280;10238;49.556;10.956;2023-12-20T12:39:24;98329.88;;;6.13;100.00
20156;BME280;10238;49.556;10.956;2023-12-20T12:42:12;98337.69;;;6.14;100.00
20156;BME280;10238;49.556;10.956;2023-12-20T12:45:02;98317.28;;;6.16;100.00
20156;BME280;10238;49.556;10.956;2023-12-20T12:47:50;98320.78;;;6.17;100.00
20156;BME280;10238;49.556;10.956;2023-12-20T12:50:41;98322.69;;;6.15;100.00
20156;BME280;10238;49.556;10.956;2023-12-20T12:53:29;98327.97;;;6.15;100.00
20156;BME280;10238;49.556;10.956;2023-12-20T12:56:18;98322.94;;;6.12;100.00
20156;BME280;10238;49.556;10.956;2023-12-20T12:59:06;98315.41;;;6.07;100.00
20156;BME280;10238;49.556;10.956;2023-12-20T13:01:55;98320.56;;;6.09;100.00
20156;BME280;10238;49.556;10.956;2023-12-20T13:04:43;98322.34;;;6.08;100.00
20156;BME280;10238;49.556;10.956;2023-12-20T13:07:31;98316.25;;;6.08;100.00
20156;BME280;10238;49.556;10.956;2023-12-20T13:10:19;98313.25;;;6.12;100.00
20156;BME280;10238;49.556;10.956;2023-12-20T13:13:07;98306.00;;;6.14;100.00
20156;BME280;10238;49.556;10.956;2023-12-20T13:15:54;98314.91;;;6.13;100.00
20156;BME280;10238;49.556;10.956;2023-12-20T13:18:43;98318.53;;;6.12;100.00
20156;BME280;10238;49.556;10.956;2023-12-20T13:21:31;98317.06;;;6.08;100.00
20156;BME280;10238;49.556;10.956;2023-12-20T13:24:19;98313.03;;;6.04;100.00
20156;BME280;10238;49.556;10.956;2023-12-20T13:27:06;98315.78;;;6.03;100.00
20156;BME280;10238;49.556;10.956;2023-12-20T13:29:54;98302.03;;;5.99;100.00
20156;BME280;10238;49.556;10.956;2023-12-20T13:32:42;98309.50;;;5.94;100.00
20156;BME280;10238;49.556;10.956;2023-12-20T13:35:32;98307.81;;;5.93;100.00
20156;BME280;10238;49.556;10.956;2023-12-20T13:38:19;98309.13;;;5.88;100.00
20156;BME280;10238;49.556;10.956;2023-12-20T13:41:07;98310.50;;;5.82;100.00
20156;BME280;10238;49.556;10.956;2023-12-20T13:43:54;98303.78;;;5.78;100.00
20156;BME280;10238;49.556;10.956;2023-12-20T13:46:42;98308.56;;;5.73;100.00
20156;BME280;10238;49.556;10.956;2023-12-20T13:49:29;98309.66;;;5.71;100.00
20156;BME280;10238;49.556;10.956;2023-12-20T13:52:18;98302.13;;;5.66;100.00
20156;BME280;10238;49.556;10.956;2023-12-20T13:55:07;98302.50;;;5.62;100.00
20156;BME280;10238;49.556;10.956;2023-12-20T13:57:55;98303.34;;;5.62;100.00
20156;BME280;10238;49.556;10.956;2023-12-20T14:00:44;98307.22;;;5.58;100.00
20156;BME280;10238;49.556;10.956;2023-12-20T14:03:32;98299.94;;;5.51;100.00
20156;BME280;10238;49.556;10.956;2023-12-20T14:06:19;98300.03;;;5.49;100.00
20156;BME280;10238;49.556;10.956;2023-12-20T14:09:08;98291.66;;;5.44;100.00
20156;BME280;10238;49.556;10.956;2023-12-20T14:11:58;98294.53;;;5.41;100.00
20156;BME280;10238;49.556;10.956;2023-12-20T14:14:46;98288.72;;;5.38;100.00
20156;BME280;10238;49.556;10.956;2023-12-20T14:17:33;98291.47;;;5.36;100.00
20156;BME280;10238;49.556;10.956;2023-12-20T14:20:21;98290.84;;;5.33;100.00
20156;BME280;10238;49.556;10.956;2023-12-20T14:23:09;98275.16;;;5.31;100.00
20156;BME280;10238;49.556;10.956;2023-12-20T14:25:58;98272.53;;;5.31;100.00
20156;BME280;10238;49.556;10.956;2023-12-20T14:28:46;98272.53;;;5.31;100.00
20156;BME280;10238;49.556;10.956;2023-12-20T14:31:33;98276.16;;;5.30;100.00
20156;BME280;10238;49.556;10.956;2023-12-20T14:34:21;98272.78;;;5.28;100.00
20156;BME280;10238;49.556;10.956;2023-12-20T14:37:11;98260.56;;;5.27;100.00
20156;BME280;10238;49.556;10.956;2023-12-20T14:39:58;98267.19;;;5.22;100.00
20156;BME280;10238;49.556;10.956;2023-12-20T14:42:47;98261.19;;;5.20;100.00